createdAt,value
2019-06-20T00:00:42.540Z,21.30
2019-06-20T00:03:11.876Z,21.20
2019-06-20T00:05:42.375Z,21.30
2019-06-20T00:08:12.136Z,21.30
2019-06-20T00:10:41.911Z,21.30
2019-06-20T00:13:11.235Z,21.30
2019-06-20T00:15:40.721Z,20.90
2019-06-20T00:18:10.292Z,20.70
2019-06-20T00:20:39.635Z,21.00
2019-06-20T00:23:08.988Z,20.60
2019-06-20T00:25:38.399Z,20.30
2019-06-20T00:28:07.714Z,20.30
2019-06-20T00:30:37.080Z,20.50
2019-06-20T00:33:07.476Z,20.60
2019-06-20T00:35:36.803Z,20.80
2019-06-20T00:38:06.161Z,20.80
2019-06-20T00:40:35.493Z,20.80
2019-06-20T00:43:17.054Z,20.80
2019-06-20T00:45:35.911Z,20.70
2019-06-20T00:48:05.380Z,20.80
2019-06-20T00:50:34.886Z,20.80
2019-06-20T00:53:04.302Z,20.60
2019-06-20T00:55:33.654Z,20.60
2019-06-20T00:58:04.069Z,20.60
2019-06-20T01:00:33.466Z,20.70
2019-06-20T01:03:02.818Z,20.70
2019-06-20T01:05:32.152Z,20.70
2019-06-20T01:08:01.532Z,20.00
2019-06-20T01:10:30.907Z,19.70
2019-06-20T01:13:00.275Z,19.90
2019-06-20T01:15:29.666Z,20.20
2019-06-20T01:17:59.036Z,20.40
2019-06-20T01:20:28.481Z,20.40
2019-06-20T01:22:57.911Z,20.40
2019-06-20T01:25:33.081Z,20.40
2019-06-20T01:28:02.508Z,20.30
2019-06-20T01:30:31.839Z,20.30
2019-06-20T01:33:01.208Z,20.40
2019-06-20T01:35:30.531Z,20.10
2019-06-20T01:37:59.890Z,20.00
2019-06-20T01:40:29.316Z,19.60
2019-06-20T01:42:58.740Z,19.70
2019-06-20T01:45:28.182Z,19.80
2019-06-20T01:47:57.571Z,20.00
2019-06-20T01:50:26.908Z,20.00
2019-06-20T01:52:56.251Z,20.00
2019-06-20T01:55:25.579Z,19.80
2019-06-20T01:57:54.933Z,20.00
2019-06-20T02:00:39.481Z,20.10
2019-06-20T02:03:08.907Z,20.10
2019-06-20T02:05:38.341Z,20.10
2019-06-20T02:08:07.750Z,20.00
2019-06-20T02:10:37.139Z,19.90
2019-06-20T02:13:06.474Z,19.80
2019-06-20T02:15:35.828Z,19.80
2019-06-20T02:18:05.495Z,19.60
2019-06-20T02:20:39.033Z,19.60
2019-06-20T02:23:08.435Z,19.50
2019-06-20T02:25:37.783Z,19.50
2019-06-20T02:28:07.216Z,19.40
2019-06-20T02:30:36.709Z,19.40
2019-06-20T02:33:06.153Z,19.40
2019-06-20T02:35:35.535Z,19.40
2019-06-20T02:38:04.927Z,19.40
2019-06-20T02:40:35.523Z,19.40
2019-06-20T02:43:05.611Z,19.40
2019-06-20T02:45:36.939Z,19.20
2019-06-20T02:48:07.087Z,19.20
2019-06-20T02:50:36.648Z,19.10
2019-06-20T02:53:07.191Z,19.00
2019-06-20T02:55:36.558Z,19.00
2019-06-20T02:58:05.977Z,18.80
2019-06-20T03:00:57.470Z,18.60
2019-06-20T03:03:28.202Z,18.80
2019-06-20T03:05:58.005Z,18.90
2019-06-20T03:08:28.034Z,19.00
2019-06-20T03:10:57.430Z,19.10
2019-06-20T03:13:26.909Z,19.00
2019-06-20T03:15:56.358Z,19.10
2019-06-20T03:18:25.724Z,19.20
2019-06-20T03:20:55.286Z,19.20
2019-06-20T03:23:24.724Z,19.10
2019-06-20T03:25:54.043Z,19.00
2019-06-20T03:28:23.412Z,19.00
2019-06-20T03:30:52.913Z,19.10
2019-06-20T03:33:22.312Z,19.20
2019-06-20T03:35:51.774Z,19.00
2019-06-20T03:38:21.276Z,17.90
2019-06-20T03:40:50.594Z,17.40
2019-06-20T03:43:19.981Z,17.80
2019-06-20T03:45:49.399Z,17.70
2019-06-20T03:48:18.834Z,17.70
2019-06-20T03:50:48.239Z,18.10
2019-06-20T03:53:17.579Z,18.40
2019-06-20T03:55:47.019Z,18.70
2019-06-20T03:58:16.456Z,18.90
2019-06-20T04:00:45.872Z,19.10
2019-06-20T04:03:15.318Z,19.20
2019-06-20T04:05:44.731Z,19.20
2019-06-20T04:08:14.085Z,19.30
2019-06-20T04:10:43.515Z,19.30
2019-06-20T04:13:12.918Z,19.50
2019-06-20T04:15:42.279Z,19.60
2019-06-20T04:18:11.599Z,19.70
2019-06-20T04:20:40.937Z,19.70
2019-06-20T04:23:10.395Z,19.70
2019-06-20T04:25:39.736Z,19.60
2019-06-20T04:28:09.066Z,19.40
2019-06-20T04:30:38.420Z,19.50
2019-06-20T04:33:07.857Z,19.20
2019-06-20T04:35:37.218Z,19.10
2019-06-20T04:38:06.630Z,19.30
2019-06-20T04:40:36.006Z,19.30
2019-06-20T04:43:06.363Z,19.60
2019-06-20T04:45:46.675Z,19.70
2019-06-20T04:48:15.994Z,19.80
2019-06-20T04:50:45.331Z,19.90
2019-06-20T04:53:14.699Z,20.10
2019-06-20T04:55:44.015Z,20.00
2019-06-20T04:58:13.373Z,19.90
2019-06-20T05:00:42.779Z,20.00
2019-06-20T05:03:12.179Z,20.10
2019-06-20T05:05:41.510Z,20.40
2019-06-20T05:08:10.839Z,20.30
2019-06-20T05:10:40.166Z,20.40
2019-06-20T05:13:09.528Z,20.40
2019-06-20T05:15:51.912Z,20.30
2019-06-20T05:18:10.003Z,20.20
2019-06-20T05:20:39.442Z,20.30
2019-06-20T05:23:08.872Z,20.30
2019-06-20T05:25:38.278Z,20.30
2019-06-20T05:28:07.635Z,20.60
2019-06-20T05:30:37.125Z,21.10
2019-06-20T05:33:06.537Z,21.50
2019-06-20T05:35:35.966Z,21.60
2019-06-20T05:38:05.367Z,21.90
2019-06-20T05:40:37.214Z,22.00
2019-06-20T05:43:05.741Z,22.30
2019-06-20T05:45:35.069Z,22.40
2019-06-20T05:48:04.972Z,21.90
2019-06-20T05:50:34.370Z,21.90
2019-06-20T05:53:03.698Z,21.80
2019-06-20T05:55:33.063Z,21.50
2019-06-20T05:58:02.438Z,21.40
2019-06-20T06:00:32.007Z,21.20
2019-06-20T06:03:01.444Z,21.10
2019-06-20T06:05:30.880Z,20.90
2019-06-20T06:08:00.406Z,20.90
2019-06-20T06:10:29.808Z,20.90
2019-06-20T06:12:59.126Z,21.00
2019-06-20T06:15:28.487Z,21.20
2019-06-20T06:17:57.891Z,21.40
2019-06-20T06:20:27.359Z,21.00
2019-06-20T06:22:56.699Z,20.70
2019-06-20T06:25:26.114Z,20.50
2019-06-20T06:27:55.439Z,20.10
2019-06-20T06:30:24.795Z,20.00
2019-06-20T06:32:54.120Z,20.00
2019-06-20T06:35:23.729Z,20.00
2019-06-20T06:37:53.152Z,20.00
2019-06-20T06:40:22.927Z,20.00
2019-06-20T06:42:52.244Z,20.00
2019-06-20T06:45:22.256Z,19.80
2019-06-20T06:47:51.678Z,19.90
2019-06-20T06:50:21.279Z,20.10
2019-06-20T06:52:50.600Z,20.20
2019-06-20T06:55:20.504Z,20.50
2019-06-20T06:57:49.911Z,20.30
2019-06-20T07:00:19.665Z,20.00
2019-06-20T07:02:49.015Z,19.90
2019-06-20T07:05:18.575Z,20.00
2019-06-20T07:07:47.911Z,20.00
2019-06-20T07:10:17.654Z,19.90
2019-06-20T07:12:47.955Z,20.10
2019-06-20T07:15:17.599Z,20.20
2019-06-20T07:17:46.913Z,20.20
2019-06-20T07:20:16.889Z,20.20
2019-06-20T07:22:46.226Z,20.20
2019-06-20T07:25:15.936Z,20.10
2019-06-20T07:27:45.323Z,20.10
2019-06-20T07:30:15.194Z,20.00
2019-06-20T07:32:44.518Z,20.00
2019-06-20T07:35:14.795Z,20.00
2019-06-20T07:37:44.192Z,20.10
2019-06-20T07:40:15.028Z,20.40
2019-06-20T07:42:44.429Z,20.30
2019-06-20T07:45:14.483Z,20.50
2019-06-20T07:47:43.874Z,20.30
2019-06-20T07:50:13.687Z,20.10
2019-06-20T07:52:51.819Z,20.40
2019-06-20T07:55:14.438Z,20.40
2019-06-20T07:57:43.876Z,20.10
2019-06-20T08:00:13.988Z,19.90
2019-06-20T08:02:43.415Z,20.00
2019-06-20T08:05:14.516Z,20.00
2019-06-20T08:07:43.938Z,20.50
2019-06-20T08:10:15.938Z,21.10
2019-06-20T08:12:45.290Z,21.50
2019-06-20T08:15:16.153Z,21.40
2019-06-20T08:17:45.649Z,21.20
2019-06-20T08:20:15.823Z,20.70
2019-06-20T08:22:45.167Z,20.40
2019-06-20T08:25:15.510Z,20.60
2019-06-20T08:27:52.940Z,21.20
2019-06-20T08:30:33.475Z,21.60
2019-06-20T08:33:07.457Z,21.60
2019-06-20T08:35:34.198Z,21.50
2019-06-20T08:38:05.620Z,20.90
2019-06-20T08:40:37.709Z,21.10
2019-06-20T08:43:07.135Z,21.40
2019-06-20T08:45:37.928Z,21.40
2019-06-20T08:48:07.596Z,21.20
2019-06-20T08:50:37.094Z,21.20
2019-06-20T08:53:06.816Z,21.90
2019-06-20T08:55:36.671Z,22.00
2019-06-20T08:58:06.681Z,22.10
2019-06-20T09:00:38.029Z,22.10
2019-06-20T09:03:07.692Z,21.80
2019-06-20T09:05:37.259Z,21.70
2019-06-20T09:08:11.157Z,21.60
2019-06-20T09:10:42.220Z,21.40
2019-06-20T09:13:12.688Z,21.40
2019-06-20T09:15:44.299Z,21.30
2019-06-20T09:18:13.804Z,21.10
2019-06-20T09:20:43.150Z,20.80
2019-06-20T09:23:12.551Z,20.90
2019-06-20T09:25:42.949Z,20.90
2019-06-20T09:28:17.641Z,20.90
2019-06-20T09:30:47.017Z,20.90
2019-06-20T09:33:16.464Z,20.80
2019-06-20T09:35:45.860Z,20.90
2019-06-20T09:38:15.174Z,20.90
2019-06-20T09:40:45.478Z,21.00
2019-06-20T09:43:28.093Z,21.20
2019-06-20T09:45:58.397Z,21.30
2019-06-20T09:48:27.916Z,21.70
2019-06-20T09:50:58.542Z,21.80
2019-06-20T09:53:28.181Z,21.90
2019-06-20T09:55:57.823Z,22.10
2019-06-20T09:58:27.302Z,22.20
2019-06-20T10:00:57.450Z,22.30
2019-06-20T10:03:26.939Z,22.80
2019-06-20T10:05:56.668Z,22.50
2019-06-20T10:08:26.265Z,22.70
2019-06-20T10:10:56.262Z,23.20
2019-06-20T10:13:25.678Z,22.70
2019-06-20T10:15:55.697Z,22.80
2019-06-20T10:18:25.278Z,23.50
2019-06-20T10:20:54.670Z,24.60
2019-06-20T10:23:24.003Z,24.80
2019-06-20T10:25:53.665Z,25.30
2019-06-20T10:28:23.222Z,24.70
2019-06-20T10:30:53.408Z,24.40
2019-06-20T10:33:22.944Z,24.50
2019-06-20T10:35:52.610Z,24.70
2019-06-20T10:38:22.089Z,25.30
2019-06-20T10:40:52.063Z,24.70
2019-06-20T10:43:21.550Z,24.60
2019-06-20T10:45:50.892Z,24.80
2019-06-20T10:48:20.284Z,24.90
2019-06-20T10:50:49.853Z,25.20
2019-06-20T10:53:19.278Z,24.60
2019-06-20T10:55:49.042Z,24.90
2019-06-20T10:58:18.519Z,25.60
2019-06-20T11:00:48.357Z,25.50
2019-06-20T11:03:18.921Z,25.50
2019-06-20T11:05:48.291Z,25.90
2019-06-20T11:08:18.761Z,25.80
2019-06-20T11:10:49.258Z,25.80
2019-06-20T11:13:18.844Z,26.10
2019-06-20T11:15:48.332Z,26.00
2019-06-20T11:18:17.763Z,25.90
2019-06-20T11:20:47.123Z,27.20
2019-06-20T11:23:16.543Z,27.20
2019-06-20T11:25:46.620Z,27.60
2019-06-20T11:28:16.169Z,26.70
2019-06-20T11:30:56.097Z,26.40
2019-06-20T11:33:16.877Z,26.10
2019-06-20T11:35:46.211Z,26.50
2019-06-20T11:38:15.580Z,26.50
2019-06-20T11:40:45.003Z,26.70
2019-06-20T11:43:14.442Z,26.90
2019-06-20T11:45:43.878Z,26.80
2019-06-20T11:48:13.273Z,26.80
2019-06-20T11:50:42.664Z,26.60
2019-06-20T11:53:12.262Z,27.20
2019-06-20T11:55:42.227Z,27.30
2019-06-20T11:58:11.576Z,26.50
2019-06-20T12:00:41.008Z,26.60
2019-06-20T12:03:10.430Z,26.30
2019-06-20T12:05:41.476Z,26.90
2019-06-20T12:08:11.476Z,26.40
2019-06-20T12:10:43.090Z,26.10
2019-06-20T12:13:11.745Z,26.10
2019-06-20T12:15:42.504Z,26.60
2019-06-20T12:18:12.201Z,26.20
2019-06-20T12:20:42.875Z,25.70
2019-06-20T12:23:12.441Z,25.50
2019-06-20T12:25:42.705Z,25.40
2019-06-20T12:28:13.251Z,25.10
2019-06-20T12:30:43.528Z,24.90
2019-06-20T12:33:14.087Z,24.90
2019-06-20T12:35:44.494Z,24.80
2019-06-20T12:38:15.239Z,24.70
2019-06-20T12:40:46.178Z,24.60
2019-06-20T12:43:15.688Z,24.60
2019-06-20T12:45:45.041Z,24.50
2019-06-20T12:48:14.439Z,24.60
2019-06-20T12:50:45.022Z,24.50
2019-06-20T12:53:14.606Z,24.50
2019-06-20T12:55:45.630Z,24.60
2019-06-20T12:58:15.223Z,24.60
2019-06-20T13:00:45.368Z,24.30
2019-06-20T13:03:15.822Z,24.20
2019-06-20T13:05:45.189Z,24.20
2019-06-20T13:08:14.586Z,24.10
2019-06-20T13:10:46.088Z,24.10
2019-06-20T13:13:14.814Z,23.90
2019-06-20T13:15:44.575Z,23.90
2019-06-20T13:18:14.046Z,24.00
2019-06-20T13:20:44.258Z,24.10
2019-06-20T13:23:13.677Z,24.20
2019-06-20T13:25:44.486Z,24.20
2019-06-20T13:28:15.108Z,24.30
2019-06-20T13:30:48.901Z,24.20
2019-06-20T13:33:15.845Z,24.10
2019-06-20T13:35:45.424Z,24.10
2019-06-20T13:38:14.851Z,24.20
2019-06-20T13:40:45.388Z,24.50
2019-06-20T13:43:14.921Z,24.70
2019-06-20T13:45:44.797Z,25.10
2019-06-20T13:48:14.461Z,25.40
2019-06-20T13:50:45.240Z,25.20
2019-06-20T13:53:14.746Z,25.30
2019-06-20T13:55:44.209Z,25.70
2019-06-20T13:58:15.000Z,26.00
2019-06-20T14:00:45.478Z,26.20
2019-06-20T14:03:15.011Z,26.30
2019-06-20T14:05:45.377Z,26.20
2019-06-20T14:08:14.934Z,26.60
2019-06-20T14:10:46.028Z,27.90
2019-06-20T14:13:19.509Z,28.80
2019-06-20T14:15:48.542Z,28.70
2019-06-20T14:18:18.139Z,28.30
2019-06-20T14:20:48.524Z,28.20
2019-06-20T14:23:18.015Z,28.00
2019-06-20T14:25:48.674Z,26.80
2019-06-20T14:28:18.286Z,27.00
2019-06-20T14:30:48.352Z,27.30
2019-06-20T14:33:17.881Z,27.00
2019-06-20T14:35:47.898Z,27.20
2019-06-20T14:38:18.364Z,26.80
2019-06-20T14:40:48.242Z,26.80
2019-06-20T14:43:17.723Z,26.40
2019-06-20T14:45:48.604Z,27.20
2019-06-20T14:48:18.194Z,28.50
2019-06-20T14:50:47.858Z,29.80
2019-06-20T14:53:19.460Z,30.20
2019-06-20T14:55:49.737Z,30.90
2019-06-20T14:58:19.399Z,30.60
2019-06-20T15:00:50.331Z,25.60
2019-06-20T15:03:19.653Z,26.20
2019-06-20T15:05:50.146Z,27.00
2019-06-20T15:08:19.671Z,27.60
2019-06-20T15:10:50.135Z,26.80
2019-06-20T15:13:19.732Z,26.50
2019-06-20T15:15:49.520Z,27.50
2019-06-20T15:18:19.154Z,25.80
2019-06-20T15:20:50.194Z,25.70
2019-06-20T15:23:21.399Z,27.10
2019-06-20T15:25:52.011Z,26.00
2019-06-20T15:28:21.681Z,24.30
2019-06-20T15:30:52.578Z,26.00
2019-06-20T15:33:22.114Z,25.50
2019-06-20T15:35:53.428Z,23.80
2019-06-20T15:38:22.470Z,24.30
2019-06-20T15:40:53.595Z,26.20
2019-06-20T15:43:25.082Z,27.00
2019-06-20T15:45:55.840Z,27.00
2019-06-20T15:48:25.290Z,29.30
2019-06-20T15:50:54.636Z,30.30
2019-06-20T15:53:24.030Z,32.50
2019-06-20T15:55:53.469Z,29.80
2019-06-20T15:58:22.935Z,30.20
2019-06-20T16:00:52.353Z,28.10
2019-06-20T16:03:21.808Z,30.30
2019-06-20T16:05:54.726Z,32.60
2019-06-20T16:08:24.401Z,30.10
2019-06-20T16:10:53.734Z,28.80
2019-06-20T16:13:23.399Z,29.00
2019-06-20T16:15:52.788Z,30.10
2019-06-20T16:18:22.114Z,28.90
2019-06-20T16:20:51.544Z,28.40
2019-06-20T16:23:20.960Z,29.60
2019-06-20T16:25:50.347Z,29.20
2019-06-20T16:28:19.668Z,30.00
2019-06-20T16:30:49.798Z,29.40
2019-06-20T16:33:25.557Z,28.20
2019-06-20T16:35:54.571Z,26.70
2019-06-20T16:38:25.185Z,26.10
2019-06-20T16:40:54.511Z,26.40
2019-06-20T16:43:23.847Z,26.40
2019-06-20T16:45:53.178Z,26.30
2019-06-20T16:48:22.520Z,25.80
2019-06-20T16:50:51.924Z,25.50
2019-06-20T16:53:21.357Z,25.40
2019-06-20T16:55:50.788Z,25.20
2019-06-20T16:58:21.304Z,25.50
2019-06-20T17:00:50.720Z,25.50
2019-06-20T17:03:20.056Z,25.40
2019-06-20T17:05:49.392Z,25.10
2019-06-20T17:08:19.824Z,25.10
2019-06-20T17:10:49.220Z,25.10
2019-06-20T17:13:18.592Z,25.20
2019-06-20T17:15:47.956Z,25.40
2019-06-20T17:18:17.379Z,25.30
2019-06-20T17:20:46.782Z,25.50
2019-06-20T17:23:16.103Z,26.80
2019-06-20T17:25:45.463Z,28.80
2019-06-20T17:28:14.896Z,30.00
2019-06-20T17:30:44.305Z,30.00
2019-06-20T17:33:13.620Z,29.60
2019-06-20T17:35:42.948Z,29.20
2019-06-20T17:38:12.272Z,28.20
2019-06-20T17:40:41.625Z,27.50
2019-06-20T17:43:11.028Z,26.70
2019-06-20T17:45:40.363Z,26.20
2019-06-20T17:48:09.722Z,25.90
2019-06-20T17:50:39.070Z,25.70
2019-06-20T17:53:08.490Z,25.70
2019-06-20T17:55:37.847Z,25.40
2019-06-20T17:58:07.207Z,25.40
2019-06-20T18:00:36.899Z,25.40
2019-06-20T18:03:06.298Z,25.10
2019-06-20T18:05:35.631Z,25.00
2019-06-20T18:08:14.856Z,24.70
2019-06-20T18:10:36.067Z,24.60
2019-06-20T18:13:05.427Z,24.50
2019-06-20T18:15:34.863Z,24.40
2019-06-20T18:18:04.465Z,24.40
2019-06-20T18:20:33.850Z,24.20
2019-06-20T18:23:03.275Z,24.30
2019-06-20T18:25:32.696Z,24.10
2019-06-20T18:28:02.049Z,24.10
2019-06-20T18:30:43.016Z,24.00
2019-06-20T18:33:13.018Z,23.80
2019-06-20T18:35:42.463Z,23.70
2019-06-20T18:38:11.876Z,23.70
2019-06-20T18:40:41.270Z,23.70
2019-06-20T18:43:10.723Z,23.60
2019-06-20T18:45:40.100Z,23.60
2019-06-20T18:48:10.486Z,23.50
2019-06-20T18:50:39.862Z,23.60
2019-06-20T18:53:09.296Z,23.50
2019-06-20T18:55:38.716Z,23.50
2019-06-20T18:58:09.080Z,23.40
2019-06-20T19:00:38.872Z,23.30
2019-06-20T19:03:08.404Z,23.40
2019-06-20T19:05:37.825Z,23.40
2019-06-20T19:08:07.222Z,23.30
2019-06-20T19:10:36.552Z,23.30
2019-06-20T19:13:05.885Z,23.30
2019-06-20T19:15:35.320Z,23.20
2019-06-20T19:18:04.726Z,23.20
2019-06-20T19:20:34.121Z,23.20
2019-06-20T19:23:03.531Z,23.20
2019-06-20T19:25:34.594Z,23.10
2019-06-20T19:28:04.024Z,23.20
2019-06-20T19:30:45.329Z,23.10
2019-06-20T19:33:14.688Z,23.10
2019-06-20T19:35:45.060Z,23.00
2019-06-20T19:38:14.560Z,23.10
2019-06-20T19:40:48.411Z,23.10
2019-06-20T19:43:17.891Z,23.00
2019-06-20T19:45:47.252Z,23.10
2019-06-20T19:48:16.680Z,23.10
2019-06-20T19:50:46.182Z,23.10
2019-06-20T19:53:15.637Z,23.20
2019-06-20T19:55:45.133Z,23.10
2019-06-20T19:58:14.527Z,23.20
2019-06-20T20:00:44.203Z,22.70
2019-06-20T20:03:13.623Z,22.30
2019-06-20T20:05:43.716Z,22.50
2019-06-20T20:08:13.104Z,22.60
2019-06-20T20:10:49.347Z,22.70
2019-06-20T20:13:19.038Z,22.70
2019-06-20T20:15:48.468Z,22.70
2019-06-20T20:18:17.864Z,22.70
2019-06-20T20:20:48.121Z,22.60
2019-06-20T20:23:17.717Z,22.70
2019-06-20T20:25:47.127Z,22.70
2019-06-20T20:28:16.561Z,22.70
2019-06-20T20:30:46.222Z,22.80
2019-06-20T20:33:15.587Z,22.80
2019-06-20T20:35:45.966Z,22.80
2019-06-20T20:38:15.372Z,22.70
2019-06-20T20:40:44.996Z,22.60
2019-06-20T20:43:14.392Z,22.50
2019-06-20T20:45:43.865Z,22.40
2019-06-20T20:48:13.823Z,21.70
2019-06-20T20:50:43.448Z,21.40
2019-06-20T20:53:12.812Z,21.20
2019-06-20T20:55:43.352Z,21.00
2019-06-20T20:58:13.672Z,20.80
2019-06-20T21:00:55.229Z,20.40
2019-06-20T21:03:24.581Z,20.30
2019-06-20T21:05:54.981Z,20.40
2019-06-20T21:08:24.383Z,19.50
2019-06-20T21:10:53.750Z,18.80
2019-06-20T21:13:23.489Z,18.60
2019-06-20T21:15:53.003Z,18.20
2019-06-20T21:18:22.335Z,18.20
2019-06-20T21:20:51.672Z,18.40
2019-06-20T21:23:21.049Z,18.50
2019-06-20T21:25:50.489Z,17.90
2019-06-20T21:28:20.958Z,17.80
2019-06-20T21:30:50.304Z,18.30
2019-06-20T21:33:19.702Z,18.60
2019-06-20T21:35:49.050Z,18.90
2019-06-20T21:38:18.491Z,19.10
2019-06-20T21:40:47.925Z,19.20
2019-06-20T21:43:17.332Z,19.40
2019-06-20T21:45:46.692Z,19.60
2019-06-20T21:48:16.090Z,19.50
2019-06-20T21:50:45.991Z,19.50
2019-06-20T21:53:15.356Z,19.10
2019-06-20T21:55:44.784Z,18.40
2019-06-20T21:58:14.211Z,18.60
2019-06-20T22:00:47.391Z,18.90
2019-06-20T22:03:18.698Z,18.50
2019-06-20T22:05:48.233Z,18.60
2019-06-20T22:08:17.696Z,18.90
2019-06-20T22:10:47.020Z,19.10
2019-06-20T22:13:16.350Z,18.70
2019-06-20T22:15:45.817Z,18.10
2019-06-20T22:18:15.323Z,18.30
2019-06-20T22:20:44.684Z,18.70
2019-06-20T22:23:14.135Z,18.60
2019-06-20T22:25:43.724Z,18.20
2019-06-20T22:28:13.067Z,18.40
2019-06-20T22:30:48.491Z,18.70
2019-06-20T22:33:17.850Z,18.90
2019-06-20T22:35:47.353Z,19.10
2019-06-20T22:38:16.773Z,19.10
2019-06-20T22:40:47.214Z,19.10
2019-06-20T22:43:16.550Z,19.20
2019-06-20T22:45:45.919Z,19.30
2019-06-20T22:48:15.311Z,19.30
2019-06-20T22:50:44.634Z,19.30
2019-06-20T22:53:15.044Z,19.30
2019-06-20T22:55:44.635Z,19.20
2019-06-20T22:58:14.041Z,19.30
2019-06-20T23:00:44.151Z,19.30
2019-06-20T23:03:13.569Z,19.20
2019-06-20T23:05:43.007Z,19.30
2019-06-20T23:08:12.431Z,19.00
2019-06-20T23:10:41.831Z,19.00
2019-06-20T23:13:11.210Z,19.00
2019-06-20T23:15:41.325Z,18.80
2019-06-20T23:18:10.638Z,18.80
2019-06-20T23:20:40.422Z,18.70
2019-06-20T23:23:09.765Z,18.60
2019-06-20T23:25:40.815Z,18.50
2019-06-20T23:28:10.136Z,18.50
2019-06-20T23:30:39.463Z,18.50
2019-06-20T23:33:10.680Z,18.40
2019-06-20T23:35:40.087Z,18.40
2019-06-20T23:38:09.444Z,18.60
2019-06-20T23:40:38.879Z,18.60
2019-06-20T23:43:08.311Z,18.60
2019-06-20T23:45:37.643Z,18.60
2019-06-20T23:48:06.974Z,18.70
2019-06-20T23:50:36.327Z,18.80
2019-06-20T23:53:10.114Z,18.80
2019-06-20T23:55:39.503Z,18.70
2019-06-20T23:58:08.871Z,18.60
